sensor_id;sensor_type;location;lat;lon;timestamp;pressure;altitude;pressure_sealevel;temperature;humidity
28935;BME280;16044;52.726;-2.108;2023-04-25T00:02:25;100730.88;;;3.20;76.51
28935;BME280;16044;52.726;-2.108;2023-04-25T00:04:52;100728.56;;;3.15;77.17
28935;BME280;16044;52.726;-2.108;2023-04-25T00:07:20;100733.31;;;3.11;76.60
28935;BME280;16044;52.726;-2.108;2023-04-25T00:09:47;100732.84;;;3.06;77.36
28935;BME280;16044;52.726;-2.108;2023-04-25T00:12:14;100727.00;;;3.01;77.49
28935;BME280;16044;52.726;-2.108;2023-04-25T00:14:42;100728.34;;;2.96;78.42
28935;BME280;16044;52.726;-2.108;2023-04-25T00:17:09;100720.78;;;2.89;78.82
28935;BME280;16044;52.726;-2.108;2023-04-25T00:19:36;100720.41;;;2.83;79.52
28935;BME280;16044;52.726;-2.108;2023-04-25T00:22:04;100717.13;;;2.79;79.02
28935;BME280;16044;52.726;-2.108;2023-04-25T00:24:32;100721.97;;;2.74;79.16
28935;BME280;16044;52.726;-2.108;2023-04-25T00:26:59;100716.16;;;2.69;79.39
28935;BME280;16044;52.726;-2.108;2023-04-25T00:29:26;100710.19;;;2.65;78.96
28935;BME280;16044;52.726;-2.108;2023-04-25T00:31:53;100716.66;;;2.63;79.33
28935;BME280;16044;52.726;-2.108;2023-04-25T00:34:20;100718.81;;;2.58;79.80
28935;BME280;16044;52.726;-2.108;2023-04-25T00:36:47;100719.03;;;2.54;80.33
28935;BME280;16044;52.726;-2.108;2023-04-25T00:39:14;100717.59;;;2.50;81.17
28935;BME280;16044;52.726;-2.108;2023-04-25T00:41:42;100722.22;;;2.48;80.56
28935;BME280;16044;52.726;-2.108;2023-04-25T00:44:11;100718.91;;;2.45;80.33
28935;BME280;16044;52.726;-2.108;2023-04-25T00:46:38;100712.94;;;2.41;80.70
28935;BME280;16044;52.726;-2.108;2023-04-25T00:49:06;100721.34;;;2.37;80.80
28935;BME280;16044;52.726;-2.108;2023-04-25T00:51:33;100726.19;;;2.31;81.44
28935;BME280;16044;52.726;-2.108;2023-04-25T00:54:01;100722.88;;;2.28;81.52
28935;BME280;16044;52.726;-2.108;2023-04-25T00:56:28;100726.75;;;2.24;81.87
28935;BME280;16044;52.726;-2.108;2023-04-25T00:58:56;100728.72;;;2.22;80.64
28935;BME280;16044;52.726;-2.108;2023-04-25T01:01:23;100737.94;;;2.18;80.84
28935;BME280;16044;52.726;-2.108;2023-04-25T01:03:52;100731.97;;;2.14;81.14
28935;BME280;16044;52.726;-2.108;2023-04-25T01:06:21;100737.66;;;2.09;81.66
28935;BME280;16044;52.726;-2.108;2023-04-25T01:08:49;100742.50;;;2.04;82.25
28935;BME280;16044;52.726;-2.108;2023-04-25T01:11:16;100737.38;;;2.01;82.25
28935;BME280;16044;52.726;-2.108;2023-04-25T01:13:43;100744.66;;;1.99;82.45
28935;BME280;16044;52.726;-2.108;2023-04-25T01:16:10;100752.16;;;1.94;83.09
28935;BME280;16044;52.726;-2.108;2023-04-25T01:18:38;100750.69;;;1.90;82.65
28935;BME280;16044;52.726;-2.108;2023-04-25T01:21:11;100750.91;;;1.87;83.18
28935;BME280;16044;52.726;-2.108;2023-04-25T01:23:41;100754.78;;;1.83;83.15
28935;BME280;16044;52.726;-2.108;2023-04-25T01:26:09;100755.03;;;1.80;82.77
28935;BME280;16044;52.726;-2.108;2023-04-25T01:28:39;100743.81;;;1.74;83.10
28935;BME280;16044;52.726;-2.108;2023-04-25T01:31:08;100751.84;;;1.74;82.22
28935;BME280;16044;52.726;-2.108;2023-04-25T01:33:35;100748.66;;;1.69;82.61
28935;BME280;16044;52.726;-2.108;2023-04-25T01:36:03;100757.75;;;1.67;82.21
28935;BME280;16044;52.726;-2.108;2023-04-25T01:38:30;100760.75;;;1.62;82.60
28935;BME280;16044;52.726;-2.108;2023-04-25T01:40:58;100761.19;;;1.56;83.30
28935;BME280;16044;52.726;-2.108;2023-04-25T01:43:25;100760.69;;;1.51;83.61
28935;BME280;16044;52.726;-2.108;2023-04-25T01:45:53;100766.25;;;1.48;83.77
28935;BME280;16044;52.726;-2.108;2023-04-25T01:48:20;100761.13;;;1.45;82.67
28935;BME280;16044;52.726;-2.108;2023-04-25T01:50:47;100758.91;;;1.39;83.12
28935;BME280;16044;52.726;-2.108;2023-04-25T01:53:15;100763.50;;;1.36;83.02
28935;BME280;16044;52.726;-2.108;2023-04-25T01:55:42;100776.34;;;1.31;83.42
28935;BME280;16044;52.726;-2.108;2023-04-25T01:58:09;100776.53;;;1.28;83.83
28935;BME280;16044;52.726;-2.108;2023-04-25T02:00:39;100768.03;;;1.23;84.72
28935;BME280;16044;52.726;-2.108;2023-04-25T02:03:07;100763.63;;;1.22;83.38
28935;BME280;16044;52.726;-2.108;2023-04-25T02:05:39;100759.69;;;1.15;84.48
28935;BME280;16044;52.726;-2.108;2023-04-25T02:08:08;100758.22;;;1.11;84.86
28935;BME280;16044;52.726;-2.108;2023-04-25T02:10:36;100752.13;;;1.09;84.94
28935;BME280;16044;52.726;-2.108;2023-04-25T02:13:03;100755.88;;;1.06;84.29
28935;BME280;16044;52.726;-2.108;2023-04-25T02:15:31;100760.59;;;1.03;84.88
28935;BME280;16044;52.726;-2.108;2023-04-25T02:17:59;100764.19;;;1.02;84.95
28935;BME280;16044;52.726;-2.108;2023-04-25T02:20:29;100761.75;;;0.99;85.25
28935;BME280;16044;52.726;-2.108;2023-04-25T02:22:57;100761.97;;;0.95;86.36
28935;BME280;16044;52.726;-2.108;2023-04-25T02:25:24;100755.88;;;0.93;85.95
28935;BME280;16044;52.726;-2.108;2023-04-25T02:27:51;100762.31;;;0.91;86.13
28935;BME280;16044;52.726;-2.108;2023-04-25T02:30:18;100770.41;;;0.89;86.63
28935;BME280;16044;52.726;-2.108;2023-04-25T02:32:46;100759.09;;;0.86;85.67
28935;BME280;16044;52.726;-2.108;2023-04-25T02:35:13;100759.53;;;0.80;86.74
28935;BME280;16044;52.726;-2.108;2023-04-25T02:37:40;100766.16;;;0.74;88.18
28935;BME280;16044;52.726;-2.108;2023-04-25T02:40:07;100770.09;;;0.68;88.48
28935;BME280;16044;52.726;-2.108;2023-04-25T02:42:35;100768.19;;;0.70;87.37
28935;BME280;16044;52.726;-2.108;2023-04-25T02:45:03;100765.41;;;0.72;86.20
28935;BME280;16044;52.726;-2.108;2023-04-25T02:47:30;100767.72;;;0.64;87.65
28935;BME280;16044;52.726;-2.108;2023-04-25T02:49:58;100768.72;;;0.63;87.89
28935;BME280;16044;52.726;-2.108;2023-04-25T02:52:25;100765.50;;;0.57;88.58
28935;BME280;16044;52.726;-2.108;2023-04-25T02:54:52;100769.00;;;0.58;87.74
28935;BME280;16044;52.726;-2.108;2023-04-25T02:57:19;100772.75;;;0.55;88.64
28935;BME280;16044;52.726;-2.108;2023-04-25T02:59:46;100781.78;;;0.53;88.90
28935;BME280;16044;52.726;-2.108;2023-04-25T03:02:13;100787.13;;;0.53;88.28
28935;BME280;16044;52.726;-2.108;2023-04-25T03:04:40;100787.47;;;0.48;88.58
28935;BME280;16044;52.726;-2.108;2023-04-25T03:07:07;100786.81;;;0.45;89.47
28935;BME280;16044;52.726;-2.108;2023-04-25T03:09:34;100800.25;;;0.43;89.27
28935;BME280;16044;52.726;-2.108;2023-04-25T03:12:01;100797.66;;;0.42;88.87
28935;BME280;16044;52.726;-2.108;2023-04-25T03:14:28;100804.06;;;0.39;88.65
28935;BME280;16044;52.726;-2.108;2023-04-25T03:16:55;100806.97;;;0.36;90.29
28935;BME280;16044;52.726;-2.108;2023-04-25T03:19:22;100812.41;;;0.34;89.17
28935;BME280;16044;52.726;-2.108;2023-04-25T03:21:50;100806.50;;;0.29;90.42
28935;BME280;16044;52.726;-2.108;2023-04-25T03:24:17;100811.19;;;0.26;89.77
28935;BME280;16044;52.726;-2.108;2023-04-25T03:26:44;100807.47;;;0.28;88.51
28935;BME280;16044;52.726;-2.108;2023-04-25T03:29:10;100804.16;;;0.25;89.65
28935;BME280;16044;52.726;-2.108;2023-04-25T03:31:38;100803.63;;;0.19;90.03
28935;BME280;16044;52.726;-2.108;2023-04-25T03:34:05;100811.63;;;0.19;88.79
28935;BME280;16044;52.726;-2.108;2023-04-25T03:36:32;100805.72;;;0.14;89.93
28935;BME280;16044;52.726;-2.108;2023-04-25T03:38:59;100812.97;;;0.12;91.75
28935;BME280;16044;52.726;-2.108;2023-04-25T03:41:26;100809.56;;;0.10;90.59
28935;BME280;16044;52.726;-2.108;2023-04-25T03:43:53;100818.31;;;0.12;88.88
28935;BME280;16044;52.726;-2.108;2023-04-25T03:46:20;100820.41;;;0.07;89.30
28935;BME280;16044;52.726;-2.108;2023-04-25T03:48:47;100825.31;;;0.01;90.88
28935;BME280;16044;52.726;-2.108;2023-04-25T03:51:13;100820.81;;;0.01;90.79
28935;BME280;16044;52.726;-2.108;2023-04-25T03:53:40;100819.97;;;0.01;89.98
28935;BME280;16044;52.726;-2.108;2023-04-25T03:56:07;100820.06;;;-0.01;89.31
28935;BME280;16044;52.726;-2.108;2023-04-25T03:58:34;100821.97;;;-0.03;89.37
28935;BME280;16044;52.726;-2.108;2023-04-25T04:01:02;100829.22;;;-0.05;89.91
28935;BME280;16044;52.726;-2.108;2023-04-25T04:03:34;100824.84;;;-0.06;89.19
28935;BME280;16044;52.726;-2.108;2023-04-25T04:06:04;100823.22;;;-0.09;89.01
28935;BME280;16044;52.726;-2.108;2023-04-25T04:08:32;100810.31;;;-0.15;90.13
28935;BME280;16044;52.726;-2.108;2023-04-25T04:11:00;100814.00;;;-0.17;90.51
28935;BME280;16044;52.726;-2.108;2023-04-25T04:13:27;100807.94;;;-0.20;91.39
28935;BME280;16044;52.726;-2.108;2023-04-25T04:15:55;100815.94;;;-0.20;90.94
28935;BME280;16044;52.726;-2.108;2023-04-25T04:18:22;100819.56;;;-0.21;91.01
28935;BME280;16044;52.726;-2.108;2023-04-25T04:20:49;100809.84;;;-0.22;90.55
28935;BME280;16044;52.726;-2.108;2023-04-25T04:23:16;100813.47;;;-0.23;90.46
28935;BME280;16044;52.726;-2.108;2023-04-25T04:25:43;100820.59;;;-0.23;90.67
28935;BME280;16044;52.726;-2.108;2023-04-25T04:28:10;100816.34;;;-0.26;90.72
28935;BME280;16044;52.726;-2.108;2023-04-25T04:30:38;100810.25;;;-0.28;90.94
28935;BME280;16044;52.726;-2.108;2023-04-25T04:33:05;100816.53;;;-0.29;90.24
28935;BME280;16044;52.726;-2.108;2023-04-25T04:35:34;100808.09;;;-0.35;93.35
28935;BME280;16044;52.726;-2.108;2023-04-25T04:38:01;100808.94;;;-0.35;93.08
28935;BME280;16044;52.726;-2.108;2023-04-25T04:40:27;100815.97;;;-0.34;91.83
28935;BME280;16044;52.726;-2.108;2023-04-25T04:42:54;100819.59;;;-0.35;91.34
28935;BME280;16044;52.726;-2.108;2023-04-25T04:45:23;100820.53;;;-0.36;90.94
28935;BME280;16044;52.726;-2.108;2023-04-25T04:47:50;100825.00;;;-0.36;90.48
28935;BME280;16044;52.726;-2.108;2023-04-25T04:50:17;100825.09;;;-0.38;90.56
28935;BME280;16044;52.726;-2.108;2023-04-25T04:52:44;100829.47;;;-0.37;90.21
28935;BME280;16044;52.726;-2.108;2023-04-25T04:55:11;100826.16;;;-0.41;91.02
28935;BME280;16044;52.726;-2.108;2023-04-25T04:57:38;100830.81;;;-0.44;93.27
28935;BME280;16044;52.726;-2.108;2023-04-25T05:00:06;100830.81;;;-0.44;92.77
28935;BME280;16044;52.726;-2.108;2023-04-25T05:02:38;100838.72;;;-0.43;92.46
28935;BME280;16044;52.726;-2.108;2023-04-25T05:05:06;100843.19;;;-0.43;92.37
28935;BME280;16044;52.726;-2.108;2023-04-25T05:07:34;100841.28;;;-0.41;92.57
28935;BME280;16044;52.726;-2.108;2023-04-25T05:10:01;100842.91;;;-0.38;91.61
28935;BME280;16044;52.726;-2.108;2023-04-25T05:12:29;100851.72;;;-0.38;91.81
28935;BME280;16044;52.726;-2.108;2023-04-25T05:14:57;100851.53;;;-0.35;91.36
28935;BME280;16044;52.726;-2.108;2023-04-25T05:17:24;100858.59;;;-0.34;91.98
28935;BME280;16044;52.726;-2.108;2023-04-25T05:19:51;100863.72;;;-0.31;92.27
28935;BME280;16044;52.726;-2.108;2023-04-25T05:22:18;100867.13;;;-0.29;93.15
28935;BME280;16044;52.726;-2.108;2023-04-25T05:24:45;100865.97;;;-0.25;92.89
28935;BME280;16044;52.726;-2.108;2023-04-25T05:27:12;100869.31;;;-0.21;93.78
28935;BME280;16044;52.726;-2.108;2023-04-25T05:29:39;100867.41;;;-0.19;93.90
28935;BME280;16044;52.726;-2.108;2023-04-25T05:32:06;100869.78;;;-0.14;93.57
28935;BME280;16044;52.726;-2.108;2023-04-25T05:34:34;100869.38;;;-0.08;93.27
28935;BME280;16044;52.726;-2.108;2023-04-25T05:37:01;100867.47;;;-0.06;94.18
28935;BME280;16044;52.726;-2.108;2023-04-25T05:39:28;100877.41;;;0.19;94.31
28935;BME280;16044;52.726;-2.108;2023-04-25T05:41:55;100869.47;;;0.72;95.67
28935;BME280;16044;52.726;-2.108;2023-04-25T05:44:22;100863.28;;;1.35;94.60
28935;BME280;16044;52.726;-2.108;2023-04-25T05:46:49;100870.25;;;1.88;93.30
28935;BME280;16044;52.726;-2.108;2023-04-25T05:49:16;100871.19;;;2.24;91.05
28935;BME280;16044;52.726;-2.108;2023-04-25T05:51:45;100878.25;;;2.49;89.76
28935;BME280;16044;52.726;-2.108;2023-04-25T05:54:12;100877.13;;;2.76;87.96
28935;BME280;16044;52.726;-2.108;2023-04-25T05:56:39;100876.81;;;2.91;87.19
28935;BME280;16044;52.726;-2.108;2023-04-25T05:59:05;100892.41;;;2.98;86.57
28935;BME280;16044;52.726;-2.108;2023-04-25T06:01:32;100895.25;;;3.19;85.42
28935;BME280;16044;52.726;-2.108;2023-04-25T06:04:00;100894.44;;;3.41;85.04
28935;BME280;16044;52.726;-2.108;2023-04-25T06:06:28;100892.50;;;3.54;84.42
28935;BME280;16044;52.726;-2.108;2023-04-25T06:08:55;100881.66;;;3.78;83.99
28935;BME280;16044;52.726;-2.108;2023-04-25T06:11:22;100892.81;;;3.95;83.52
28935;BME280;16044;52.726;-2.108;2023-04-25T06:13:49;100900.63;;;3.98;82.87
28935;BME280;16044;52.726;-2.108;2023-04-25T06:16:17;100900.38;;;4.12;81.24
28935;BME280;16044;52.726;-2.108;2023-04-25T06:18:44;100907.31;;;4.15;81.09
28935;BME280;16044;52.726;-2.108;2023-04-25T06:21:11;100913.66;;;4.14;81.25
28935;BME280;16044;52.726;-2.108;2023-04-25T06:23:38;100909.28;;;4.13;80.89
28935;BME280;16044;52.726;-2.108;2023-04-25T06:26:08;100910.75;;;4.05;80.66
28935;BME280;16044;52.726;-2.108;2023-04-25T06:28:35;100909.38;;;4.22;79.72
28935;BME280;16044;52.726;-2.108;2023-04-25T06:31:03;100912.59;;;4.48;79.23
28935;BME280;16044;52.726;-2.108;2023-04-25T06:33:30;100898.19;;;4.82;79.39
28935;BME280;16044;52.726;-2.108;2023-04-25T06:35:57;100903.00;;;5.20;78.34
28935;BME280;16044;52.726;-2.108;2023-04-25T06:38:24;100897.25;;;5.56;79.03
28935;BME280;16044;52.726;-2.108;2023-04-25T06:40:51;100892.56;;;5.89;77.39
28935;BME280;16044;52.726;-2.108;2023-04-25T06:43:18;100896.47;;;6.05;76.89
28935;BME280;16044;52.726;-2.108;2023-04-25T06:45:45;100903.44;;;6.18;76.56
28935;BME280;16044;52.726;-2.108;2023-04-25T06:48:14;100908.00;;;6.27;75.20
28935;BME280;16044;52.726;-2.108;2023-04-25T06:50:41;100911.69;;;6.26;74.11
28935;BME280;16044;52.726;-2.108;2023-04-25T06:53:08;100918.22;;;6.33;74.14
28935;BME280;16044;52.726;-2.108;2023-04-25T06:55:35;100913.00;;;6.41;74.33
28935;BME280;16044;52.726;-2.108;2023-04-25T06:58:02;100913.97;;;6.40;71.78
28935;BME280;16044;52.726;-2.108;2023-04-25T07:00:29;100924.03;;;6.38;71.92
28935;BME280;16044;52.726;-2.108;2023-04-25T07:02:57;100925.63;;;6.51;71.91
28935;BME280;16044;52.726;-2.108;2023-04-25T07:05:25;100925.63;;;6.70;72.61
28935;BME280;16044;52.726;-2.108;2023-04-25T07:07:51;100935.28;;;6.82;72.10
28935;BME280;16044;52.726;-2.108;2023-04-25T07:10:19;100942.50;;;6.92;70.80
28935;BME280;16044;52.726;-2.108;2023-04-25T07:12:47;100941.53;;;6.93;71.40
28935;BME280;16044;52.726;-2.108;2023-04-25T07:15:15;100943.22;;;7.13;71.33
28935;BME280;16044;52.726;-2.108;2023-04-25T07:17:42;100942.50;;;7.11;70.62
28935;BME280;16044;52.726;-2.108;2023-04-25T07:20:09;100942.75;;;7.28;68.77
28935;BME280;16044;52.726;-2.108;2023-04-25T07:22:37;100949.00;;;7.38;65.90
28935;BME280;16044;52.726;-2.108;2023-04-25T07:25:04;100947.03;;;7.30;67.53
28935;BME280;16044;52.726;-2.108;2023-04-25T07:27:32;100948.31;;;7.26;67.84
28935;BME280;16044;52.726;-2.108;2023-04-25T07:29:59;100949.81;;;7.48;68.45
28935;BME280;16044;52.726;-2.108;2023-04-25T07:32:26;100951.66;;;7.57;68.28
28935;BME280;16044;52.726;-2.108;2023-04-25T07:34:53;100956.78;;;7.60;67.32
28935;BME280;16044;52.726;-2.108;2023-04-25T07:37:20;100958.97;;;7.85;66.48
28935;BME280;16044;52.726;-2.108;2023-04-25T07:39:48;100955.25;;;7.86;64.96
28935;BME280;16044;52.726;-2.108;2023-04-25T07:42:15;100954.88;;;8.08;63.89
28935;BME280;16044;52.726;-2.108;2023-04-25T07:44:43;100963.94;;;8.17;62.27
28935;BME280;16044;52.726;-2.108;2023-04-25T07:47:10;100957.25;;;8.21;60.11
28935;BME280;16044;52.726;-2.108;2023-04-25T07:49:37;100953.16;;;8.17;59.82
28935;BME280;16044;52.726;-2.108;2023-04-25T07:52:05;100944.78;;;8.38;59.89
28935;BME280;16044;52.726;-2.108;2023-04-25T07:54:32;100950.00;;;8.49;60.54
28935;BME280;16044;52.726;-2.108;2023-04-25T07:56:59;100953.41;;;8.69;59.76
28935;BME280;16044;52.726;-2.108;2023-04-25T07:59:27;100954.91;;;8.82;58.34
28935;BME280;16044;52.726;-2.108;2023-04-25T08:01:55;100950.38;;;9.00;58.79
28935;BME280;16044;52.726;-2.108;2023-04-25T08:04:24;100952.03;;;9.19;58.66
28935;BME280;16044;52.726;-2.108;2023-04-25T08:06:52;100937.84;;;9.43;58.79
28935;BME280;16044;52.726;-2.108;2023-04-25T08:09:20;100946.97;;;9.42;55.57
28935;BME280;16044;52.726;-2.108;2023-04-25T08:11:48;100956.00;;;9.77;54.73
28935;BME280;16044;52.726;-2.108;2023-04-25T08:14:15;100951.69;;;9.92;54.06
28935;BME280;16044;52.726;-2.108;2023-04-25T08:16:42;100953.97;;;9.79;53.44
28935;BME280;16044;52.726;-2.108;2023-04-25T08:19:09;100957.47;;;9.98;53.27
28935;BME280;16044;52.726;-2.108;2023-04-25T08:21:37;100953.34;;;10.20;52.23
28935;BME280;16044;52.726;-2.108;2023-04-25T08:24:04;100954.03;;;10.30;51.94
28935;BME280;16044;52.726;-2.108;2023-04-25T08:26:32;100954.16;;;10.12;51.70
28935;BME280;16044;52.726;-2.108;2023-04-25T08:29:00;100956.75;;;10.64;51.68
28935;BME280;16044;52.726;-2.108;2023-04-25T08:31:27;100953.69;;;10.67;51.19
28935;BME280;16044;52.726;-2.108;2023-04-25T08:33:54;100960.81;;;10.68;50.05
28935;BME280;16044;52.726;-2.108;2023-04-25T08:36:21;100959.50;;;10.97;49.83
28935;BME280;16044;52.726;-2.108;2023-04-25T08:39:03;100955.09;;;10.96;49.08
28935;BME280;16044;52.726;-2.108;2023-04-25T08:41:30;100957.13;;;10.94;48.10
28935;BME280;16044;52.726;-2.108;2023-04-25T08:43:59;100960.50;;;10.80;46.84
28935;BME280;16044;52.726;-2.108;2023-04-25T08:46:28;100956.59;;;10.90;47.02
28935;BME280;16044;52.726;-2.108;2023-04-25T08:49:00;100961.91;;;11.00;47.48
28935;BME280;16044;52.726;-2.108;2023-04-25T08:51:31;100959.19;;;11.08;47.95
28935;BME280;16044;52.726;-2.108;2023-04-25T08:54:10;100962.94;;;11.16;47.18
28935;BME280;16044;52.726;-2.108;2023-04-25T08:56:44;100955.47;;;11.18;47.75
28935;BME280;16044;52.726;-2.108;2023-04-25T08:59:12;100963.25;;;11.21;47.45
28935;BME280;16044;52.726;-2.108;2023-04-25T09:01:40;100954.44;;;11.35;47.02
28935;BME280;16044;52.726;-2.108;2023-04-25T09:04:07;100952.72;;;11.34;46.89
28935;BME280;16044;52.726;-2.108;2023-04-25T09:06:35;100956.81;;;11.22;47.04
28935;BME280;16044;52.726;-2.108;2023-04-25T09:09:03;100961.88;;;11.17;46.62
28935;BME280;16044;52.726;-2.108;2023-04-25T09:11:32;100961.56;;;11.11;46.88
28935;BME280;16044;52.726;-2.108;2023-04-25T09:14:13;100957.84;;;11.04;46.21
28935;BME280;16044;52.726;-2.108;2023-04-25T09:19:35;100952.41;;;11.04;47.47
28935;BME280;16044;52.726;-2.108;2023-04-25T09:22:07;100951.69;;;10.86;45.50
28935;BME280;16044;52.726;-2.108;2023-04-25T09:24:42;100955.59;;;10.83;45.79
28935;BME280;16044;52.726;-2.108;2023-04-25T09:27:18;100946.28;;;10.94;45.72
28935;BME280;16044;52.726;-2.108;2023-04-25T09:29:46;100948.16;;;10.93;46.19
28935;BME280;16044;52.726;-2.108;2023-04-25T09:32:16;100952.72;;;11.01;47.13
28935;BME280;16044;52.726;-2.108;2023-04-25T09:34:51;100952.91;;;11.00;46.04
28935;BME280;16044;52.726;-2.108;2023-04-25T09:37:21;100956.81;;;10.89;45.94
28935;BME280;16044;52.726;-2.108;2023-04-25T09:39:56;100956.13;;;10.95;45.02
28935;BME280;16044;52.726;-2.108;2023-04-25T09:42:32;100952.69;;;10.85;43.86
28935;BME280;16044;52.726;-2.108;2023-04-25T09:45:03;100945.91;;;10.81;43.83
28935;BME280;16044;52.726;-2.108;2023-04-25T09:47:30;100945.41;;;10.77;44.74
28935;BME280;16044;52.726;-2.108;2023-04-25T09:49:57;100943.41;;;10.87;45.23
28935;BME280;16044;52.726;-2.108;2023-04-25T09:52:25;100945.28;;;10.87;44.61
28935;BME280;16044;52.726;-2.108;2023-04-25T09:54:52;100952.91;;;10.83;44.88
28935;BME280;16044;52.726;-2.108;2023-04-25T09:57:22;100951.69;;;10.94;44.69
28935;BME280;16044;52.726;-2.108;2023-04-25T09:59:52;100942.22;;;11.15;45.14
28935;BME280;16044;52.726;-2.108;2023-04-25T10:02:25;100954.44;;;11.19;44.34
28935;BME280;16044;52.726;-2.108;2023-04-25T10:04:55;100948.16;;;11.18;44.20
28935;BME280;16044;52.726;-2.108;2023-04-25T10:07:24;100951.72;;;11.10;43.31
28935;BME280;16044;52.726;-2.108;2023-04-25T10:09:58;100947.63;;;10.90;44.41
28935;BME280;16044;52.726;-2.108;2023-04-25T10:12:29;100945.91;;;10.81;43.96
28935;BME280;16044;52.726;-2.108;2023-04-25T10:14:58;100956.91;;;10.71;44.54
28935;BME280;16044;52.726;-2.108;2023-04-25T10:17:26;100948.31;;;10.76;46.81
28935;BME280;16044;52.726;-2.108;2023-04-25T10:19:57;100944.09;;;10.89;45.66
28935;BME280;16044;52.726;-2.108;2023-04-25T10:22:34;100947.63;;;10.90;44.02
28935;BME280;16044;52.726;-2.108;2023-04-25T10:25:04;100950.19;;;11.00;43.68
28935;BME280;16044;52.726;-2.108;2023-04-25T10:27:34;100945.94;;;10.97;43.58
28935;BME280;16044;52.726;-2.108;2023-04-25T10:30:07;100944.25;;;10.96;44.36
28935;BME280;16044;52.726;-2.108;2023-04-25T10:32:43;100936.63;;;10.91;43.42
28935;BME280;16044;52.726;-2.108;2023-04-25T10:35:25;100940.84;;;10.78;41.78
28935;BME280;16044;52.726;-2.108;2023-04-25T10:37:58;100942.16;;;10.65;41.48
28935;BME280;16044;52.726;-2.108;2023-04-25T10:40:26;100944.72;;;10.67;42.57
28935;BME280;16044;52.726;-2.108;2023-04-25T10:42:54;100946.59;;;10.66;42.85
28935;BME280;16044;52.726;-2.108;2023-04-25T10:45:22;100946.91;;;10.63;43.14
28935;BME280;16044;52.726;-2.108;2023-04-25T10:47:49;100934.72;;;10.59;42.06
28935;BME280;16044;52.726;-2.108;2023-04-25T10:50:17;100935.84;;;10.48;42.08
28935;BME280;16044;52.726;-2.108;2023-04-25T10:52:44;100931.63;;;10.46;41.50
28935;BME280;16044;52.726;-2.108;2023-04-25T10:55:11;100938.25;;;10.51;42.65
28935;BME280;16044;52.726;-2.108;2023-04-25T11:00:10;100937.88;;;10.46;42.82
28935;BME280;16044;52.726;-2.108;2023-04-25T11:02:47;100938.72;;;10.47;42.21
28935;BME280;16044;52.726;-2.108;2023-04-25T11:08:11;100938.41;;;10.50;40.12
28935;BME280;16044;52.726;-2.108;2023-04-25T11:10:39;100944.03;;;10.65;40.59
28935;BME280;16044;52.726;-2.108;2023-04-25T11:13:07;100943.53;;;10.69;40.21
28935;BME280;16044;52.726;-2.108;2023-04-25T11:15:33;100933.56;;;10.78;40.02
28935;BME280;16044;52.726;-2.108;2023-04-25T11:18:01;100937.78;;;10.81;40.46
28935;BME280;16044;52.726;-2.108;2023-04-25T11:20:28;100939.50;;;10.98;40.62
28935;BME280;16044;52.726;-2.108;2023-04-25T11:22:59;100942.91;;;11.08;40.40
28935;BME280;16044;52.726;-2.108;2023-04-25T11:25:29;100949.34;;;10.99;38.59
28935;BME280;16044;52.726;-2.108;2023-04-25T11:27:58;100939.00;;;11.03;39.24
28935;BME280;16044;52.726;-2.108;2023-04-25T11:30:28;100936.78;;;10.98;38.54
28935;BME280;16044;52.726;-2.108;2023-04-25T11:32:57;100935.44;;;10.94;37.79
28935;BME280;16044;52.726;-2.108;2023-04-25T11:35:24;100921.19;;;10.92;38.69
28935;BME280;16044;52.726;-2.108;2023-04-25T11:37:52;100931.91;;;11.10;37.97
28935;BME280;16044;52.726;-2.108;2023-04-25T11:40:19;100921.03;;;11.18;38.04
28935;BME280;16044;52.726;-2.108;2023-04-25T11:42:47;100932.38;;;11.46;38.52
28935;BME280;16044;52.726;-2.108;2023-04-25T11:45:14;100917.75;;;11.72;37.93
28935;BME280;16044;52.726;-2.108;2023-04-25T11:47:42;100930.63;;;11.95;37.36
28935;BME280;16044;52.726;-2.108;2023-04-25T11:50:09;100925.13;;;12.03;36.71
28935;BME280;16044;52.726;-2.108;2023-04-25T11:52:41;100920.72;;;12.02;36.53
28935;BME280;16044;52.726;-2.108;2023-04-25T11:55:14;100921.09;;;11.90;36.71
28935;BME280;16044;52.726;-2.108;2023-04-25T11:57:45;100923.09;;;11.88;36.94
28935;BME280;16044;52.726;-2.108;2023-04-25T12:00:19;100919.75;;;11.95;36.65
28935;BME280;16044;52.726;-2.108;2023-04-25T12:02:51;100918.66;;;12.04;36.25
28935;BME280;16044;52.726;-2.108;2023-04-25T12:05:23;100911.78;;;12.24;38.11
28935;BME280;16044;52.726;-2.108;2023-04-25T12:08:10;100926.09;;;12.18;36.50
28935;BME280;16044;52.726;-2.108;2023-04-25T12:10:39;100924.44;;;12.09;35.76
28935;BME280;16044;52.726;-2.108;2023-04-25T12:13:24;100933.97;;;11.88;36.43
28935;BME280;16044;52.726;-2.108;2023-04-25T12:15:54;100926.25;;;11.61;36.46
28935;BME280;16044;52.726;-2.108;2023-04-25T12:18:24;100935.44;;;11.35;36.94
28935;BME280;16044;52.726;-2.108;2023-04-25T12:20:54;100940.34;;;11.40;37.49
28935;BME280;16044;52.726;-2.108;2023-04-25T12:23:28;100936.78;;;11.47;37.05
28935;BME280;16044;52.726;-2.108;2023-04-25T12:25:55;100930.44;;;11.71;37.48
28935;BME280;16044;52.726;-2.108;2023-04-25T12:28:24;100933.28;;;12.03;37.89
28935;BME280;16044;52.726;-2.108;2023-04-25T12:33:23;100926.00;;;12.66;37.04
28935;BME280;16044;52.726;-2.108;2023-04-25T12:35:52;100929.84;;;12.80;36.09
28935;BME280;16044;52.726;-2.108;2023-04-25T12:38:30;100931.41;;;12.74;35.98
28935;BME280;16044;52.726;-2.108;2023-04-25T12:40:58;100929.59;;;12.66;35.21
28935;BME280;16044;52.726;-2.108;2023-04-25T12:43:25;100937.34;;;12.46;35.73
28935;BME280;16044;52.726;-2.108;2023-04-25T12:45:53;100936.28;;;12.47;35.80
28935;BME280;16044;52.726;-2.108;2023-04-25T12:48:22;100938.56;;;12.44;36.42
28935;BME280;16044;52.726;-2.108;2023-04-25T12:50:50;100930.16;;;12.54;35.94
28935;BME280;16044;52.726;-2.108;2023-04-25T12:53:19;100929.59;;;12.66;34.85
28935;BME280;16044;52.726;-2.108;2023-04-25T12:55:48;100927.38;;;12.93;35.22
28935;BME280;16044;52.726;-2.108;2023-04-25T12:58:16;100928.66;;;13.20;35.84
28935;BME280;16044;52.726;-2.108;2023-04-25T13:00:45;100929.53;;;13.44;36.20
28935;BME280;16044;52.726;-2.108;2023-04-25T13:03:12;100927.28;;;13.62;34.89